< Cyclone 198513 1985 Season Cyclone 198515 >
Cyclone 198514 (SANDY)
General InformationTrack Information on Google MapsDetailed Wind InformationList of All Images || ResourceGoogle EarthGE AnimationAtom FeedGeoJSON
Detalied Best Track (Time Zone = UTC)
Year Month Day Hour Lat. Long. Pressure (hPa) Wind (kt) Class Image Chart
1985 3 20 00 -13.8 139.5 1000 25 2 Image --
1985 3 20 06 -13.8 139.7 998 30 2 Image --
1985 3 20 12 -13.6 139.0 995 35 3 Image --
1985 3 20 18 -13.3 138.2 992 40 3 Image --
1985 3 21 00 -13.5 138.5 988 50 4 Image --
1985 3 21 06 -13.5 138.9 982 55 4 Image --
1985 3 21 12 -13.4 139.0 975 60 4 Image --
1985 3 21 18 -13.3 138.8 968 80 5 Image --
1985 3 22 00 -13.4 138.6 960 85 5 Image --
1985 3 22 06 -13.6 138.6 957 85 5 Image --
1985 3 22 12 -13.9 138.8 953 95 5 Image --
1985 3 22 18 -14.4 138.7 953 105 5 Image --
1985 3 23 00 -14.8 138.6 953 105 5 Image --
1985 3 23 06 -15.1 138.4 956 100 5 Image --
1985 3 23 12 -15.6 137.8 960 95 5 Image --
1985 3 23 18 -15.5 137.3 960 95 5 Image --
1985 3 24 00 -15.2 136.8 960 95 5 Image --
1985 3 24 06 -15.2 136.2 965 90 5 Image --
1985 3 24 12 -14.8 135.5 970 75 5 Image --
1985 3 24 18 -14.4 135.1 980 60 4 Image --
1985 3 25 00 -14.4 134.9 990 40 3 Image --
1985 3 25 06 -14.4 134.5 995 30 2 Image --
1985 3 25 12 -14.3 134.2 996 30 2 Image --
1985 3 25 18 -14.3 134.0 998 25 2 Image --
1985 3 26 00 -14.3 133.7 998 25 2 Image --
< Cyclone 198513 1985 Season Cyclone 198515 >

Help